sensor_id;sensor_type;location;lat;lon;timestamp;temperature;humidity
68128;SHT30;54931;52.098;21.006;2023-02-28T00:01:42;-4.28;73.14
68128;SHT30;54931;52.098;21.006;2023-02-28T00:04:10;-4.33;73.35
68128;SHT30;54931;52.098;21.006;2023-02-28T00:06:38;-4.39;73.58
68128;SHT30;54931;52.098;21.006;2023-02-28T00:09:08;-4.48;73.60
68128;SHT30;54931;52.098;21.006;2023-02-28T00:11:37;-4.54;73.78
68128;SHT30;54931;52.098;21.006;2023-02-28T00:14:06;-4.58;74.00
68128;SHT30;54931;52.098;21.006;2023-02-28T00:16:34;-4.62;74.06
68128;SHT30;54931;52.098;21.006;2023-02-28T00:19:02;-4.67;74.16
68128;SHT30;54931;52.098;21.006;2023-02-28T00:21:29;-4.71;74.30
68128;SHT30;54931;52.098;21.006;2023-02-28T00:23:57;-4.75;74.41
68128;SHT30;54931;52.098;21.006;2023-02-28T00:26:25;-4.77;74.47
68128;SHT30;54931;52.098;21.006;2023-02-28T00:28:53;-4.80;74.51
68128;SHT30;54931;52.098;21.006;2023-02-28T00:31:20;-4.84;74.50
68128;SHT30;54931;52.098;21.006;2023-02-28T00:33:48;-4.89;74.53
68128;SHT30;54931;52.098;21.006;2023-02-28T00:36:18;-4.93;74.62
68128;SHT30;54931;52.098;21.006;2023-02-28T00:38:45;-4.96;74.70
68128;SHT30;54931;52.098;21.006;2023-02-28T00:41:13;-4.98;74.79
68128;SHT30;54931;52.098;21.006;2023-02-28T00:43:41;-5.01;74.86
68128;SHT30;54931;52.098;21.006;2023-02-28T00:46:09;-5.04;74.88
68128;SHT30;54931;52.098;21.006;2023-02-28T00:48:37;-5.09;74.87
68128;SHT30;54931;52.098;21.006;2023-02-28T00:51:05;-5.11;74.91
68128;SHT30;54931;52.098;21.006;2023-02-28T00:53:33;-5.12;74.97
68128;SHT30;54931;52.098;21.006;2023-02-28T00:56:01;-5.16;75.00
68128;SHT30;54931;52.098;21.006;2023-02-28T00:58:30;-5.18;74.99
68128;SHT30;54931;52.098;21.006;2023-02-28T01:00:57;-5.20;75.05
68128;SHT30;54931;52.098;21.006;2023-02-28T01:03:25;-5.21;75.10
68128;SHT30;54931;52.098;21.006;2023-02-28T01:05:53;-5.24;75.10
68128;SHT30;54931;52.098;21.006;2023-02-28T01:08:21;-5.27;75.17
68128;SHT30;54931;52.098;21.006;2023-02-28T01:10:49;-5.31;75.20
68128;SHT30;54931;52.098;21.006;2023-02-28T01:13:18;-5.35;75.22
68128;SHT30;54931;52.098;21.006;2023-02-28T01:15:49;-5.37;75.25
68128;SHT30;54931;52.098;21.006;2023-02-28T01:18:19;-5.34;75.35
68128;SHT30;54931;52.098;21.006;2023-02-28T01:20:48;-5.33;75.41
68128;SHT30;54931;52.098;21.006;2023-02-28T01:23:19;-5.32;75.47
68128;SHT30;54931;52.098;21.006;2023-02-28T01:25:50;-5.28;75.59
68128;SHT30;54931;52.098;21.006;2023-02-28T01:28:18;-5.24;75.76
68128;SHT30;54931;52.098;21.006;2023-02-28T01:30:49;-5.22;75.69
68128;SHT30;54931;52.098;21.006;2023-02-28T01:33:18;-5.22;75.67
68128;SHT30;54931;52.098;21.006;2023-02-28T01:35:46;-5.23;75.70
68128;SHT30;54931;52.098;21.006;2023-02-28T01:38:14;-5.22;75.82
68128;SHT30;54931;52.098;21.006;2023-02-28T01:40:42;-5.23;75.78
68128;SHT30;54931;52.098;21.006;2023-02-28T01:46:10;-5.26;75.80
68128;SHT30;54931;52.098;21.006;2023-02-28T01:48:49;-5.27;75.88
68128;SHT30;54931;52.098;21.006;2023-02-28T01:54:03;-5.30;75.88
68128;SHT30;54931;52.098;21.006;2023-02-28T01:56:45;-5.33;75.82
68128;SHT30;54931;52.098;21.006;2023-02-28T01:59:23;-5.36;75.76
68128;SHT30;54931;52.098;21.006;2023-02-28T02:02:32;-5.37;75.90
68128;SHT30;54931;52.098;21.006;2023-02-28T02:05:09;-5.38;75.97
68128;SHT30;54931;52.098;21.006;2023-02-28T02:07:42;-5.38;76.07
68128;SHT30;54931;52.098;21.006;2023-02-28T02:10:23;-5.38;76.20
68128;SHT30;54931;52.098;21.006;2023-02-28T02:16:34;-5.40;76.24
68128;SHT30;54931;52.098;21.006;2023-02-28T02:37:25;-5.79;77.00
68128;SHT30;54931;52.098;21.006;2023-02-28T02:48:14;-5.95;77.26
68128;SHT30;54931;52.098;21.006;2023-02-28T02:50:55;-5.98;77.28
68128;SHT30;54931;52.098;21.006;2023-02-28T02:53:29;-5.97;77.30
68128;SHT30;54931;52.098;21.006;2023-02-28T02:56:04;-5.95;77.36
68128;SHT30;54931;52.098;21.006;2023-02-28T02:58:36;-5.92;77.46
68128;SHT30;54931;52.098;21.006;2023-02-28T03:01:11;-5.88;77.55
68128;SHT30;54931;52.098;21.006;2023-02-28T03:03:58;-5.84;77.60
68128;SHT30;54931;52.098;21.006;2023-02-28T03:06:31;-5.81;77.60
68128;SHT30;54931;52.098;21.006;2023-02-28T03:09:00;-5.79;77.48
68128;SHT30;54931;52.098;21.006;2023-02-28T03:11:28;-5.78;77.45
68128;SHT30;54931;52.098;21.006;2023-02-28T03:14:01;-5.76;77.50
68128;SHT30;54931;52.098;21.006;2023-02-28T03:25:19;-5.73;77.54
68128;SHT30;54931;52.098;21.006;2023-02-28T03:28:16;-5.72;77.60
68128;SHT30;54931;52.098;21.006;2023-02-28T03:34:14;-5.70;77.54
68128;SHT30;54931;52.098;21.006;2023-02-28T03:36:53;-5.71;77.40
68128;SHT30;54931;52.098;21.006;2023-02-28T03:39:37;-5.73;77.40
68128;SHT30;54931;52.098;21.006;2023-02-28T03:42:15;-5.73;77.56
68128;SHT30;54931;52.098;21.006;2023-02-28T03:50:35;-5.72;77.60
68128;SHT30;54931;52.098;21.006;2023-02-28T03:55:48;-5.73;77.67
68128;SHT30;54931;52.098;21.006;2023-02-28T03:58:29;-5.73;77.74
68128;SHT30;54931;52.098;21.006;2023-02-28T04:01:25;-5.72;77.83
68128;SHT30;54931;52.098;21.006;2023-02-28T04:04:03;-5.75;77.85
68128;SHT30;54931;52.098;21.006;2023-02-28T04:06:32;-5.78;78.05
68128;SHT30;54931;52.098;21.006;2023-02-28T04:09:02;-5.78;78.04
68128;SHT30;54931;52.098;21.006;2023-02-28T04:11:35;-5.79;78.02
68128;SHT30;54931;52.098;21.006;2023-02-28T04:14:16;-5.79;78.02
68128;SHT30;54931;52.098;21.006;2023-02-28T04:16:46;-5.78;78.00
68128;SHT30;54931;52.098;21.006;2023-02-28T04:19:15;-5.80;77.93
68128;SHT30;54931;52.098;21.006;2023-02-28T04:21:45;-5.80;77.89
68128;SHT30;54931;52.098;21.006;2023-02-28T04:24:19;-5.83;77.90
68128;SHT30;54931;52.098;21.006;2023-02-28T04:26:51;-5.86;77.90
68128;SHT30;54931;52.098;21.006;2023-02-28T04:29:23;-5.88;77.97
68128;SHT30;54931;52.098;21.006;2023-02-28T04:31:55;-5.90;78.02
68128;SHT30;54931;52.098;21.006;2023-02-28T04:34:27;-5.90;78.19
68128;SHT30;54931;52.098;21.006;2023-02-28T04:36:58;-5.93;78.20
68128;SHT30;54931;52.098;21.006;2023-02-28T04:39:28;-5.94;78.17
68128;SHT30;54931;52.098;21.006;2023-02-28T04:41:56;-5.96;78.21
68128;SHT30;54931;52.098;21.006;2023-02-28T04:44:24;-6.00;78.25
68128;SHT30;54931;52.098;21.006;2023-02-28T04:46:52;-6.01;78.46
68128;SHT30;54931;52.098;21.006;2023-02-28T04:49:21;-6.04;78.50
68128;SHT30;54931;52.098;21.006;2023-02-28T04:51:49;-6.07;78.50
68128;SHT30;54931;52.098;21.006;2023-02-28T04:54:17;-6.09;78.56
68128;SHT30;54931;52.098;21.006;2023-02-28T04:56:46;-6.14;78.69
68128;SHT30;54931;52.098;21.006;2023-02-28T04:59:17;-6.14;78.87
68128;SHT30;54931;52.098;21.006;2023-02-28T05:01:47;-6.16;78.87
68128;SHT30;54931;52.098;21.006;2023-02-28T05:04:17;-6.18;78.86
68128;SHT30;54931;52.098;21.006;2023-02-28T05:06:45;-6.21;78.98
68128;SHT30;54931;52.098;21.006;2023-02-28T05:09:13;-6.22;79.18
68128;SHT30;54931;52.098;21.006;2023-02-28T05:11:42;-6.23;79.30
68128;SHT30;54931;52.098;21.006;2023-02-28T05:14:13;-6.25;79.26
68128;SHT30;54931;52.098;21.006;2023-02-28T05:16:42;-6.27;79.18
68128;SHT30;54931;52.098;21.006;2023-02-28T05:19:10;-6.31;79.10
68128;SHT30;54931;52.098;21.006;2023-02-28T05:21:39;-6.32;79.10
68128;SHT30;54931;52.098;21.006;2023-02-28T05:24:17;-6.33;79.10
68128;SHT30;54931;52.098;21.006;2023-02-28T05:26:52;-6.34;79.23
68128;SHT30;54931;52.098;21.006;2023-02-28T05:29:22;-6.33;79.37
68128;SHT30;54931;52.098;21.006;2023-02-28T05:31:51;-6.34;79.38
68128;SHT30;54931;52.098;21.006;2023-02-28T05:34:19;-6.34;79.42
68128;SHT30;54931;52.098;21.006;2023-02-28T05:36:48;-6.33;79.57
68128;SHT30;54931;52.098;21.006;2023-02-28T05:39:16;-6.31;79.76
68128;SHT30;54931;52.098;21.006;2023-02-28T05:41:44;-6.29;79.89
68128;SHT30;54931;52.098;21.006;2023-02-28T05:44:12;-6.26;79.91
68128;SHT30;54931;52.098;21.006;2023-02-28T05:46:40;-6.25;79.93
68128;SHT30;54931;52.098;21.006;2023-02-28T05:49:09;-6.22;79.91
68128;SHT30;54931;52.098;21.006;2023-02-28T05:51:36;-6.20;79.91
68128;SHT30;54931;52.098;21.006;2023-02-28T05:54:07;-6.18;79.90
68128;SHT30;54931;52.098;21.006;2023-02-28T05:56:36;-6.14;79.90
68128;SHT30;54931;52.098;21.006;2023-02-28T05:59:07;-6.11;79.94
68128;SHT30;54931;52.098;21.006;2023-02-28T06:01:36;-6.07;79.93
68128;SHT30;54931;52.098;21.006;2023-02-28T06:04:09;-6.02;79.95
68128;SHT30;54931;52.098;21.006;2023-02-28T06:06:38;-5.97;80.00
68128;SHT30;54931;52.098;21.006;2023-02-28T06:09:06;-5.88;80.05
68128;SHT30;54931;52.098;21.006;2023-02-28T06:11:35;-5.79;80.06
68128;SHT30;54931;52.098;21.006;2023-02-28T06:14:04;-5.70;80.08
68128;SHT30;54931;52.098;21.006;2023-02-28T06:16:33;-5.60;80.10
68128;SHT30;54931;52.098;21.006;2023-02-28T06:19:03;-5.49;80.20
68128;SHT30;54931;52.098;21.006;2023-02-28T06:21:32;-5.37;80.20
68128;SHT30;54931;52.098;21.006;2023-02-28T06:24:00;-5.24;80.13
68128;SHT30;54931;52.098;21.006;2023-02-28T06:26:28;-5.13;80.09
68128;SHT30;54931;52.098;21.006;2023-02-28T06:28:57;-5.01;80.10
68128;SHT30;54931;52.098;21.006;2023-02-28T06:31:26;-4.86;80.10
68128;SHT30;54931;52.098;21.006;2023-02-28T06:33:56;-4.72;80.05
68128;SHT30;54931;52.098;21.006;2023-02-28T06:36:25;-4.58;80.00
68128;SHT30;54931;52.098;21.006;2023-02-28T06:38:53;-4.40;79.92
68128;SHT30;54931;52.098;21.006;2023-02-28T06:41:23;-4.04;80.10
68128;SHT30;54931;52.098;21.006;2023-02-28T06:43:53;-3.26;80.54
68128;SHT30;54931;52.098;21.006;2023-02-28T06:46:21;-2.26;80.20
68128;SHT30;54931;52.098;21.006;2023-02-28T06:48:50;-1.38;79.10
68128;SHT30;54931;52.098;21.006;2023-02-28T06:51:19;-0.49;77.74
68128;SHT30;54931;52.098;21.006;2023-02-28T06:53:50;0.25;75.94
68128;SHT30;54931;52.098;21.006;2023-02-28T06:56:19;0.75;73.40
68128;SHT30;54931;52.098;21.006;2023-02-28T06:58:48;1.08;71.40
68128;SHT30;54931;52.098;21.006;2023-02-28T07:01:20;1.22;69.47
68128;SHT30;54931;52.098;21.006;2023-02-28T07:03:51;1.33;67.12
68128;SHT30;54931;52.098;21.006;2023-02-28T07:06:20;1.50;65.96
68128;SHT30;54931;52.098;21.006;2023-02-28T07:08:52;1.67;65.81
68128;SHT30;54931;52.098;21.006;2023-02-28T07:11:22;2.04;64.65
68128;SHT30;54931;52.098;21.006;2023-02-28T07:13:53;2.39;63.88
68128;SHT30;54931;52.098;21.006;2023-02-28T07:16:25;2.84;63.20
68128;SHT30;54931;52.098;21.006;2023-02-28T07:18:53;2.98;60.32
68128;SHT30;54931;52.098;21.006;2023-02-28T07:21:22;3.04;59.05
68128;SHT30;54931;52.098;21.006;2023-02-28T07:23:51;3.12;56.82
68128;SHT30;54931;52.098;21.006;2023-02-28T07:26:20;3.04;55.99
68128;SHT30;54931;52.098;21.006;2023-02-28T07:28:48;3.02;54.85
68128;SHT30;54931;52.098;21.006;2023-02-28T07:31:18;3.08;56.27
68128;SHT30;54931;52.098;21.006;2023-02-28T07:33:47;3.66;56.63
68128;SHT30;54931;52.098;21.006;2023-02-28T07:36:16;4.17;55.53
68128;SHT30;54931;52.098;21.006;2023-02-28T07:38:47;4.36;52.50
68128;SHT30;54931;52.098;21.006;2023-02-28T07:41:18;4.68;53.05
68128;SHT30;54931;52.098;21.006;2023-02-28T07:43:48;5.03;51.69
68128;SHT30;54931;52.098;21.006;2023-02-28T07:46:17;5.14;52.56
68128;SHT30;54931;52.098;21.006;2023-02-28T07:48:45;4.53;50.84
68128;SHT30;54931;52.098;21.006;2023-02-28T07:51:13;4.07;50.88
68128;SHT30;54931;52.098;21.006;2023-02-28T07:53:42;3.90;51.11
68128;SHT30;54931;52.098;21.006;2023-02-28T07:56:10;4.03;51.63
68128;SHT30;54931;52.098;21.006;2023-02-28T07:58:38;4.40;52.93
68128;SHT30;54931;52.098;21.006;2023-02-28T08:01:07;4.79;51.74
68128;SHT30;54931;52.098;21.006;2023-02-28T08:03:38;4.86;49.24
68128;SHT30;54931;52.098;21.006;2023-02-28T08:06:09;4.78;49.78
68128;SHT30;54931;52.098;21.006;2023-02-28T08:08:45;4.78;48.07
68128;SHT30;54931;52.098;21.006;2023-02-28T08:11:14;4.92;48.35
68128;SHT30;54931;52.098;21.006;2023-02-28T08:13:44;5.03;47.45
68128;SHT30;54931;52.098;21.006;2023-02-28T08:16:14;5.33;47.65
68128;SHT30;54931;52.098;21.006;2023-02-28T08:18:45;5.73;47.87
68128;SHT30;54931;52.098;21.006;2023-02-28T08:21:13;6.02;47.42
68128;SHT30;54931;52.098;21.006;2023-02-28T08:23:41;6.17;46.46
68128;SHT30;54931;52.098;21.006;2023-02-28T08:26:09;6.15;46.33
68128;SHT30;54931;52.098;21.006;2023-02-28T08:28:37;6.40;46.57
68128;SHT30;54931;52.098;21.006;2023-02-28T08:31:08;6.60;45.64
68128;SHT30;54931;52.098;21.006;2023-02-28T08:33:38;6.81;45.62
68128;SHT30;54931;52.098;21.006;2023-02-28T08:36:07;6.98;44.12
68128;SHT30;54931;52.098;21.006;2023-02-28T08:38:37;6.97;43.15
68128;SHT30;54931;52.098;21.006;2023-02-28T08:41:08;6.99;43.27
68128;SHT30;54931;52.098;21.006;2023-02-28T08:43:38;6.94;42.82
68128;SHT30;54931;52.098;21.006;2023-02-28T08:46:07;7.03;43.43
68128;SHT30;54931;52.098;21.006;2023-02-28T08:48:35;7.43;43.32
68128;SHT30;54931;52.098;21.006;2023-02-28T08:51:06;7.70;42.51
68128;SHT30;54931;52.098;21.006;2023-02-28T08:53:36;7.95;42.07
68128;SHT30;54931;52.098;21.006;2023-02-28T08:56:11;8.30;41.51
68128;SHT30;54931;52.098;21.006;2023-02-28T08:58:40;8.35;40.08
68128;SHT30;54931;52.098;21.006;2023-02-28T09:01:10;8.31;41.20
68128;SHT30;54931;52.098;21.006;2023-02-28T09:03:41;8.46;40.93
68128;SHT30;54931;52.098;21.006;2023-02-28T09:06:10;8.64;40.74
68128;SHT30;54931;52.098;21.006;2023-02-28T09:08:39;8.60;39.48
68128;SHT30;54931;52.098;21.006;2023-02-28T09:11:08;8.23;39.44
68128;SHT30;54931;52.098;21.006;2023-02-28T09:13:39;8.02;39.87
68128;SHT30;54931;52.098;21.006;2023-02-28T09:16:10;7.84;39.76
68128;SHT30;54931;52.098;21.006;2023-02-28T09:18:40;7.57;39.36
68128;SHT30;54931;52.098;21.006;2023-02-28T09:21:09;7.70;40.57
68128;SHT30;54931;52.098;21.006;2023-02-28T09:23:42;7.64;39.17
68128;SHT30;54931;52.098;21.006;2023-02-28T09:26:18;7.59;40.03
68128;SHT30;54931;52.098;21.006;2023-02-28T09:28:48;7.67;39.53
68128;SHT30;54931;52.098;21.006;2023-02-28T09:31:19;7.47;39.05
68128;SHT30;54931;52.098;21.006;2023-02-28T09:33:50;7.43;39.45
68128;SHT30;54931;52.098;21.006;2023-02-28T09:36:20;7.49;40.31
68128;SHT30;54931;52.098;21.006;2023-02-28T09:38:49;7.86;39.82
68128;SHT30;54931;52.098;21.006;2023-02-28T09:43:58;7.78;38.60
68128;SHT30;54931;52.098;21.006;2023-02-28T09:46:34;7.56;39.12
68128;SHT30;54931;52.098;21.006;2023-02-28T09:49:17;7.72;39.18
68128;SHT30;54931;52.098;21.006;2023-02-28T09:51:56;7.97;39.51
68128;SHT30;54931;52.098;21.006;2023-02-28T09:54:28;8.21;39.07
68128;SHT30;54931;52.098;21.006;2023-02-28T09:59:38;8.11;38.35
68128;SHT30;54931;52.098;21.006;2023-02-28T10:03:03;7.86;38.72
68128;SHT30;54931;52.098;21.006;2023-02-28T10:05:33;7.62;39.11
68128;SHT30;54931;52.098;21.006;2023-02-28T10:11:25;7.48;39.13
68128;SHT30;54931;52.098;21.006;2023-02-28T10:16:47;7.24;40.21
68128;SHT30;54931;52.098;21.006;2023-02-28T10:24:35;6.81;40.82
68128;SHT30;54931;52.098;21.006;2023-02-28T10:27:13;6.78;41.62
68128;SHT30;54931;52.098;21.006;2023-02-28T10:29:44;6.82;41.12
68128;SHT30;54931;52.098;21.006;2023-02-28T10:32:19;6.72;41.18
68128;SHT30;54931;52.098;21.006;2023-02-28T10:34:54;6.76;41.25
68128;SHT30;54931;52.098;21.006;2023-02-28T10:37:27;6.77;41.49
68128;SHT30;54931;52.098;21.006;2023-02-28T10:39:56;6.64;41.01
68128;SHT30;54931;52.098;21.006;2023-02-28T10:42:25;6.54;41.11
68128;SHT30;54931;52.098;21.006;2023-02-28T10:45:13;6.30;41.64
68128;SHT30;54931;52.098;21.006;2023-02-28T10:47:57;6.30;41.90
68128;SHT30;54931;52.098;21.006;2023-02-28T10:58:26;6.85;41.99
68128;SHT30;54931;52.098;21.006;2023-02-28T11:04:31;7.05;40.78
68128;SHT30;54931;52.098;21.006;2023-02-28T11:09:48;6.49;40.55
68128;SHT30;54931;52.098;21.006;2023-02-28T11:12:23;6.32;41.38
68128;SHT30;54931;52.098;21.006;2023-02-28T11:15:00;6.26;41.62
68128;SHT30;54931;52.098;21.006;2023-02-28T11:17:32;6.22;41.50
68128;SHT30;54931;52.098;21.006;2023-02-28T11:20:02;6.13;41.40
68128;SHT30;54931;52.098;21.006;2023-02-28T11:22:38;6.31;42.23
68128;SHT30;54931;52.098;21.006;2023-02-28T11:25:16;6.47;41.55
68128;SHT30;54931;52.098;21.006;2023-02-28T11:27:57;6.28;42.00
68128;SHT30;54931;52.098;21.006;2023-02-28T11:30:37;6.23;42.09
68128;SHT30;54931;52.098;21.006;2023-02-28T11:33:22;6.20;41.95
68128;SHT30;54931;52.098;21.006;2023-02-28T11:36:10;6.07;41.75
68128;SHT30;54931;52.098;21.006;2023-02-28T11:38:43;6.05;42.75
68128;SHT30;54931;52.098;21.006;2023-02-28T12:03:30;5.74;42.89
68128;SHT30;54931;52.098;21.006;2023-02-28T12:20:24;5.34;44.01
68128;SHT30;54931;52.098;21.006;2023-02-28T12:23:10;5.20;44.45
68128;SHT30;54931;52.098;21.006;2023-02-28T12:28:51;5.08;44.24
68128;SHT30;54931;52.098;21.006;2023-02-28T12:31:28;5.18;44.23
68128;SHT30;54931;52.098;21.006;2023-02-28T12:34:00;5.24;44.12
68128;SHT30;54931;52.098;21.006;2023-02-28T12:36:33;5.24;44.13
68128;SHT30;54931;52.098;21.006;2023-02-28T12:39:08;5.17;44.32
68128;SHT30;54931;52.098;21.006;2023-02-28T12:41:42;5.18;44.75
68128;SHT30;54931;52.098;21.006;2023-02-28T12:44:20;5.24;44.89
68128;SHT30;54931;52.098;21.006;2023-02-28T12:46:56;5.24;44.68
68128;SHT30;54931;52.098;21.006;2023-02-28T12:52:09;5.17;45.38
68128;SHT30;54931;52.098;21.006;2023-02-28T12:57:50;5.28;45.34
68128;SHT30;54931;52.098;21.006;2023-02-28T13:00:29;5.46;44.93
68128;SHT30;54931;52.098;21.006;2023-02-28T13:03:18;5.57;44.83
68128;SHT30;54931;52.098;21.006;2023-02-28T13:06:26;5.68;44.59
68128;SHT30;54931;52.098;21.006;2023-02-28T13:09:11;5.80;44.72
68128;SHT30;54931;52.098;21.006;2023-02-28T13:11:46;5.79;44.85
68128;SHT30;54931;52.098;21.006;2023-02-28T13:14:23;5.74;44.70
68128;SHT30;54931;52.098;21.006;2023-02-28T13:19:46;5.48;45.19
68128;SHT30;54931;52.098;21.006;2023-02-28T13:24:54;5.52;45.18
68128;SHT30;54931;52.098;21.006;2023-02-28T13:38:45;5.71;44.24
68128;SHT30;54931;52.098;21.006;2023-02-28T13:44:30;5.65;43.92
68128;SHT30;54931;52.098;21.006;2023-02-28T13:57:37;6.22;43.66
68128;SHT30;54931;52.098;21.006;2023-02-28T14:00:50;6.51;42.73
68128;SHT30;54931;52.098;21.006;2023-02-28T14:03:35;6.51;42.80
68128;SHT30;54931;52.098;21.006;2023-02-28T14:06:33;6.51;42.35
68128;SHT30;54931;52.098;21.006;2023-02-28T14:11:42;6.77;42.58
68128;SHT30;54931;52.098;21.006;2023-02-28T14:17:15;7.13;42.34
68128;SHT30;54931;52.098;21.006;2023-02-28T14:19:45;7.09;41.99
68128;SHT30;54931;52.098;21.006;2023-02-28T14:25:25;6.83;41.40
68128;SHT30;54931;52.098;21.006;2023-02-28T14:31:22;5.91;42.85
68128;SHT30;54931;52.098;21.006;2023-02-28T14:37:01;5.94;43.88
68128;SHT30;54931;52.098;21.006;2023-02-28T14:39:32;5.93;43.49
68128;SHT30;54931;52.098;21.006;2023-02-28T14:42:01;5.63;43.55
68128;SHT30;54931;52.098;21.006;2023-02-28T14:44:33;5.42;44.32
68128;SHT30;54931;52.098;21.006;2023-02-28T14:47:11;5.34;44.82
68128;SHT30;54931;52.098;21.006;2023-02-28T14:49:44;5.19;44.75
68128;SHT30;54931;52.098;21.006;2023-02-28T14:52:19;4.97;45.40
68128;SHT30;54931;52.098;21.006;2023-02-28T14:54:53;4.72;45.55
68128;SHT30;54931;52.098;21.006;2023-02-28T14:57:33;4.51;46.22
68128;SHT30;54931;52.098;21.006;2023-02-28T15:00:14;4.38;46.59
68128;SHT30;54931;52.098;21.006;2023-02-28T15:03:39;4.13;46.93
68128;SHT30;54931;52.098;21.006;2023-02-28T15:06:05;3.86;47.38
68128;SHT30;54931;52.098;21.006;2023-02-28T15:08:40;3.67;48.04
68128;SHT30;54931;52.098;21.006;2023-02-28T15:11:16;3.56;48.40
68128;SHT30;54931;52.098;21.006;2023-02-28T15:13:48;3.43;48.48
68128;SHT30;54931;52.098;21.006;2023-02-28T15:21:21;3.25;49.58
68128;SHT30;54931;52.098;21.006;2023-02-28T15:26:30;3.20;49.98
68128;SHT30;54931;52.098;21.006;2023-02-28T15:29:04;3.17;50.04
68128;SHT30;54931;52.098;21.006;2023-02-28T15:31:38;3.26;50.33
68128;SHT30;54931;52.098;21.006;2023-02-28T15:34:20;3.38;50.21
68128;SHT30;54931;52.098;21.006;2023-02-28T15:36:56;3.35;50.25
68128;SHT30;54931;52.098;21.006;2023-02-28T15:39:26;3.35;50.45
68128;SHT30;54931;52.098;21.006;2023-02-28T15:42:16;3.24;50.61
68128;SHT30;54931;52.098;21.006;2023-02-28T15:44:48;3.05;50.77
68128;SHT30;54931;52.098;21.006;2023-02-28T15:47:21;2.86;51.07
68128;SHT30;54931;52.098;21.006;2023-02-28T15:50:03;2.68;51.46
68128;SHT30;54931;52.098;21.006;2023-02-28T15:52:43;2.48;51.87
68128;SHT30;54931;52.098;21.006;2023-02-28T15:55:20;2.32;52.27
68128;SHT30;54931;52.098;21.006;2023-02-28T15:57:55;2.15;52.76
68128;SHT30;54931;52.098;21.006;2023-02-28T16:00:29;1.98;53.20
68128;SHT30;54931;52.098;21.006;2023-02-28T16:03:01;1.83;53.60
68128;SHT30;54931;52.098;21.006;2023-02-28T16:09:14;1.48;54.75
68128;SHT30;54931;52.098;21.006;2023-02-28T16:11:48;1.32;55.18
68128;SHT30;54931;52.098;21.006;2023-02-28T16:14:20;1.17;55.63
68128;SHT30;54931;52.098;21.006;2023-02-28T16:16:55;1.01;56.16
68128;SHT30;54931;52.098;21.006;2023-02-28T16:19:41;0.89;56.88
68128;SHT30;54931;52.098;21.006;2023-02-28T16:22:10;0.81;57.27
68128;SHT30;54931;52.098;21.006;2023-02-28T16:24:39;0.72;57.73
68128;SHT30;54931;52.098;21.006;2023-02-28T16:27:10;0.64;58.12
68128;SHT30;54931;52.098;21.006;2023-02-28T16:29:50;0.54;58.48
68128;SHT30;54931;52.098;21.006;2023-02-28T16:32:19;0.44;58.93
68128;SHT30;54931;52.098;21.006;2023-02-28T16:34:48;0.35;59.30
68128;SHT30;54931;52.098;21.006;2023-02-28T16:37:18;0.25;59.67
68128;SHT30;54931;52.098;21.006;2023-02-28T16:39:48;0.13;59.90
68128;SHT30;54931;52.098;21.006;2023-02-28T16:42:27;0.01;60.42
68128;SHT30;54931;52.098;21.006;2023-02-28T16:44:57;-0.09;60.92
68128;SHT30;54931;52.098;21.006;2023-02-28T16:47:27;-0.17;61.62
68128;SHT30;54931;52.098;21.006;2023-02-28T16:49:56;-0.22;61.92
68128;SHT30;54931;52.098;21.006;2023-02-28T16:52:25;-0.30;62.01
68128;SHT30;54931;52.098;21.006;2023-02-28T16:54:53;-0.40;62.25
68128;SHT30;54931;52.098;21.006;2023-02-28T16:57:22;-0.51;62.72
68128;SHT30;54931;52.098;21.006;2023-02-28T16:59:51;-0.60;63.41
68128;SHT30;54931;52.098;21.006;2023-02-28T17:02:20;-0.65;63.90
68128;SHT30;54931;52.098;21.006;2023-02-28T17:04:48;-0.72;64.21
68128;SHT30;54931;52.098;21.006;2023-02-28T17:07:16;-0.78;64.54
68128;SHT30;54931;52.098;21.006;2023-02-28T17:09:45;-0.84;64.76
68128;SHT30;54931;52.098;21.006;2023-02-28T17:12:13;-0.89;65.07
68128;SHT30;54931;52.098;21.006;2023-02-28T17:14:42;-0.96;65.29
68128;SHT30;54931;52.098;21.006;2023-02-28T17:17:14;-1.03;65.58
68128;SHT30;54931;52.098;21.006;2023-02-28T17:19:47;-1.10;65.88
68128;SHT30;54931;52.098;21.006;2023-02-28T17:22:15;-1.17;66.16
68128;SHT30;54931;52.098;21.006;2023-02-28T17:24:43;-1.24;66.52
68128;SHT30;54931;52.098;21.006;2023-02-28T17:27:12;-1.30;66.80
68128;SHT30;54931;52.098;21.006;2023-02-28T17:29:40;-1.36;66.97
68128;SHT30;54931;52.098;21.006;2023-02-28T17:32:09;-1.42;67.25
68128;SHT30;54931;52.098;21.006;2023-02-28T17:34:37;-1.47;67.57
68128;SHT30;54931;52.098;21.006;2023-02-28T17:37:07;-1.52;67.91
68128;SHT30;54931;52.098;21.006;2023-02-28T17:39:37;-1.55;68.46
68128;SHT30;54931;52.098;21.006;2023-02-28T17:42:05;-1.57;69.02
68128;SHT30;54931;52.098;21.006;2023-02-28T17:44:32;-1.61;69.09
68128;SHT30;54931;52.098;21.006;2023-02-28T17:47:00;-1.65;69.05
68128;SHT30;54931;52.098;21.006;2023-02-28T17:49:28;-1.71;69.24
68128;SHT30;54931;52.098;21.006;2023-02-28T17:51:57;-1.75;69.70
68128;SHT30;54931;52.098;21.006;2023-02-28T17:54:24;-1.79;70.06
68128;SHT30;54931;52.098;21.006;2023-02-28T17:56:52;-1.85;69.99
68128;SHT30;54931;52.098;21.006;2023-02-28T17:59:20;-1.89;70.15
68128;SHT30;54931;52.098;21.006;2023-02-28T18:01:48;-1.89;70.51
68128;SHT30;54931;52.098;21.006;2023-02-28T18:04:16;-1.90;70.53
68128;SHT30;54931;52.098;21.006;2023-02-28T18:06:44;-1.93;70.61
68128;SHT30;54931;52.098;21.006;2023-02-28T18:09:18;-1.95;70.75
68128;SHT30;54931;52.098;21.006;2023-02-28T18:11:53;-1.97;70.88
68128;SHT30;54931;52.098;21.006;2023-02-28T18:14:23;-2.00;71.07
68128;SHT30;54931;52.098;21.006;2023-02-28T18:16:53;-2.00;71.39
68128;SHT30;54931;52.098;21.006;2023-02-28T18:19:23;-2.01;71.43
68128;SHT30;54931;52.098;21.006;2023-02-28T18:21:52;-2.02;71.65
68128;SHT30;54931;52.098;21.006;2023-02-28T18:24:21;-2.03;71.79
68128;SHT30;54931;52.098;21.006;2023-02-28T18:26:50;-2.04;71.88
68128;SHT30;54931;52.098;21.006;2023-02-28T18:29:22;-2.07;71.83
68128;SHT30;54931;52.098;21.006;2023-02-28T18:31:54;-2.09;72.09
68128;SHT30;54931;52.098;21.006;2023-02-28T18:34:23;-2.09;72.17
68128;SHT30;54931;52.098;21.006;2023-02-28T18:36:52;-2.15;72.07
68128;SHT30;54931;52.098;21.006;2023-02-28T18:39:20;-2.19;72.20
68128;SHT30;54931;52.098;21.006;2023-02-28T18:41:48;-2.24;72.18
68128;SHT30;54931;52.098;21.006;2023-02-28T18:44:16;-2.29;72.28
68128;SHT30;54931;52.098;21.006;2023-02-28T18:46:44;-2.31;72.58
68128;SHT30;54931;52.098;21.006;2023-02-28T18:49:12;-2.31;72.70
68128;SHT30;54931;52.098;21.006;2023-02-28T18:51:40;-2.34;72.68
68128;SHT30;54931;52.098;21.006;2023-02-28T18:54:13;-2.34;72.89
68128;SHT30;54931;52.098;21.006;2023-02-28T18:56:42;-2.34;73.06
68128;SHT30;54931;52.098;21.006;2023-02-28T18:59:11;-2.30;73.13
68128;SHT30;54931;52.098;21.006;2023-02-28T19:01:39;-2.24;72.90
68128;SHT30;54931;52.098;21.006;2023-02-28T19:04:09;-2.24;72.69